createdAt,value
2022-11-17T00:00:17.819Z,71.07
2022-11-17T00:02:49.401Z,70.93
2022-11-17T00:05:20.535Z,70.63
2022-11-17T00:07:52.161Z,70.72
2022-11-17T00:10:22.481Z,70.78
2022-11-17T00:13:10.875Z,70.97
2022-11-17T00:15:46.663Z,71.08
2022-11-17T00:18:35.029Z,71.15
2022-11-17T00:21:23.336Z,71.11
2022-11-17T00:23:53.651Z,70.88
2022-11-17T00:26:26.781Z,71.22
2022-11-17T00:28:59.012Z,71.05
2022-11-17T00:31:50.462Z,71.18
2022-11-17T00:34:22.532Z,70.94
2022-11-17T00:36:55.051Z,70.87
2022-11-17T00:39:27.005Z,71.32
2022-11-17T00:41:57.798Z,71.06
2022-11-17T00:44:30.256Z,71.03
2022-11-17T00:47:00.641Z,71.02
2022-11-17T00:49:32.261Z,71.10
2022-11-17T00:52:02.572Z,71.30
2022-11-17T00:54:33.214Z,71.27
2022-11-17T00:57:03.477Z,71.39
2022-11-17T00:59:33.568Z,71.36
2022-11-17T01:02:03.862Z,71.13
2022-11-17T01:04:34.032Z,71.33
2022-11-17T01:07:04.056Z,71.41
2022-11-17T01:09:34.590Z,71.41
2022-11-17T01:12:04.710Z,71.36
2022-11-17T01:14:35.006Z,71.35
2022-11-17T01:17:05.238Z,71.47
2022-11-17T01:19:35.384Z,71.56
2022-11-17T01:22:06.082Z,71.34
2022-11-17T01:24:36.194Z,71.32
2022-11-17T01:27:06.479Z,71.34
2022-11-17T01:29:36.683Z,70.91
2022-11-17T01:32:06.945Z,71.00
2022-11-17T01:34:37.322Z,71.23
2022-11-17T01:37:22.373Z,70.97
2022-11-17T01:39:53.402Z,70.82
2022-11-17T01:42:29.457Z,70.35
2022-11-17T01:45:23.766Z,70.69
2022-11-17T01:48:05.133Z,70.44
2022-11-17T01:50:38.603Z,70.51
2022-11-17T01:53:17.693Z,70.48
2022-11-17T01:55:55.481Z,70.22
2022-11-17T01:58:31.833Z,70.25
2022-11-17T02:01:02.481Z,70.13
2022-11-17T02:03:36.700Z,70.47
2022-11-17T02:06:39.118Z,70.41
2022-11-17T02:09:10.387Z,70.19
2022-11-17T02:11:40.304Z,70.30
2022-11-17T02:14:11.298Z,70.43
2022-11-17T02:16:41.474Z,70.49
2022-11-17T02:19:14.788Z,70.51
2022-11-17T02:22:18.559Z,70.35
2022-11-17T02:24:58.794Z,70.15
2022-11-17T02:28:07.690Z,69.74
2022-11-17T02:30:51.929Z,69.97
2022-11-17T02:33:34.185Z,69.42
2022-11-17T02:36:44.726Z,69.49
2022-11-17T02:39:28.070Z,69.34
2022-11-17T02:42:13.227Z,69.19
2022-11-17T02:45:05.014Z,69.71
2022-11-17T02:47:37.367Z,69.84
2022-11-17T02:50:13.115Z,70.35
2022-11-17T02:52:43.378Z,70.12
2022-11-17T02:55:14.328Z,69.99
2022-11-17T02:57:44.817Z,70.18
2022-11-17T03:00:17.858Z,69.88
2022-11-17T03:02:59.640Z,69.85
2022-11-17T03:06:01.626Z,70.00
2022-11-17T03:08:49.817Z,69.68
2022-11-17T03:11:27.238Z,70.18
2022-11-17T03:14:21.470Z,70.09
2022-11-17T03:17:04.420Z,70.02
2022-11-17T03:20:00.655Z,69.95
2022-11-17T03:22:43.817Z,69.49
2022-11-17T03:25:20.013Z,69.59
2022-11-17T03:27:59.010Z,69.74
2022-11-17T03:30:36.186Z,69.94
2022-11-17T03:33:16.344Z,70.81
2022-11-17T03:35:57.547Z,69.49
2022-11-17T03:38:29.737Z,70.09
2022-11-17T03:41:04.124Z,69.64
2022-11-17T03:43:35.276Z,70.55
2022-11-17T03:46:10.588Z,69.67
2022-11-17T03:49:00.379Z,69.10
2022-11-17T03:51:35.452Z,70.07
2022-11-17T03:54:05.947Z,69.93
2022-11-17T03:56:39.172Z,69.42
2022-11-17T03:59:25.135Z,69.49
2022-11-17T04:01:56.068Z,69.52
2022-11-17T04:04:26.340Z,69.15
2022-11-17T04:06:56.463Z,69.19
2022-11-17T04:09:26.969Z,69.34
2022-11-17T04:12:15.429Z,69.67
2022-11-17T04:15:03.815Z,69.93
2022-11-17T04:17:35.026Z,69.16
2022-11-17T04:20:05.317Z,69.62
2022-11-17T04:22:35.634Z,69.31
2022-11-17T04:25:05.794Z,69.59
2022-11-17T04:27:53.960Z,69.53
2022-11-17T04:30:24.208Z,70.00
2022-11-17T04:32:54.171Z,69.09
2022-11-17T04:35:24.424Z,69.16
2022-11-17T04:37:54.625Z,68.83
2022-11-17T04:40:24.905Z,68.75
2022-11-17T04:42:55.132Z,68.85
2022-11-17T04:45:25.212Z,68.25
2022-11-17T04:47:55.223Z,68.64
2022-11-17T04:50:25.544Z,68.63
2022-11-17T04:52:55.594Z,68.67
2022-11-17T04:55:25.674Z,68.88
2022-11-17T04:57:55.665Z,69.09
2022-11-17T05:00:27.357Z,68.84
2022-11-17T05:02:57.632Z,68.99
2022-11-17T05:05:27.613Z,68.49
2022-11-17T05:07:57.592Z,68.69
2022-11-17T05:10:46.225Z,68.78
2022-11-17T05:13:28.304Z,68.60
2022-11-17T05:16:18.195Z,68.34
2022-11-17T05:18:48.414Z,66.94
2022-11-17T05:21:18.443Z,67.00
2022-11-17T05:23:57.795Z,67.93
2022-11-17T05:26:37.943Z,67.92
2022-11-17T05:29:09.863Z,67.32
2022-11-17T05:31:41.397Z,67.73
2022-11-17T05:34:13.380Z,68.13
2022-11-17T05:36:44.371Z,67.26
2022-11-17T05:39:16.285Z,68.01
2022-11-17T05:41:46.732Z,67.29
2022-11-17T05:44:17.459Z,68.43
2022-11-17T05:46:47.746Z,67.71
2022-11-17T05:49:17.867Z,67.42
2022-11-17T05:51:52.492Z,67.29
2022-11-17T05:54:23.270Z,68.05
2022-11-17T05:56:53.361Z,66.94
2022-11-17T05:59:54.204Z,66.71
2022-11-17T06:02:34.426Z,67.18
2022-11-17T06:05:05.467Z,66.83
2022-11-17T06:07:37.025Z,66.31
2022-11-17T06:10:07.936Z,66.52
2022-11-17T06:12:38.091Z,66.50
2022-11-17T06:15:08.698Z,66.02
2022-11-17T06:17:45.790Z,66.45
2022-11-17T06:20:45.849Z,66.32
2022-11-17T06:23:16.122Z,66.43
2022-11-17T06:25:47.209Z,66.31
2022-11-17T06:28:20.934Z,66.53
2022-11-17T06:30:52.156Z,66.36
2022-11-17T06:33:21.955Z,66.76
2022-11-17T06:35:52.524Z,66.76
2022-11-17T06:38:22.767Z,66.70
2022-11-17T06:40:54.160Z,66.53
2022-11-17T06:43:24.431Z,65.82
2022-11-17T06:45:54.735Z,65.94
2022-11-17T06:48:29.179Z,65.89
2022-11-17T06:50:59.362Z,66.33
2022-11-17T06:53:30.619Z,65.06
2022-11-17T06:56:08.726Z,64.46
2022-11-17T06:58:41.136Z,65.41
2022-11-17T07:01:16.980Z,65.60
2022-11-17T07:03:47.206Z,65.84
2022-11-17T07:06:18.412Z,65.81
2022-11-17T07:08:48.863Z,65.39
2022-11-17T07:11:19.600Z,65.82
2022-11-17T07:13:49.924Z,65.22
2022-11-17T07:16:24.041Z,65.74
2022-11-17T07:18:56.572Z,65.42
2022-11-17T07:21:26.763Z,65.50
2022-11-17T07:23:56.800Z,65.04
2022-11-17T07:26:26.910Z,65.04
2022-11-17T07:28:57.458Z,64.98
2022-11-17T07:31:27.702Z,65.13
2022-11-17T07:33:57.901Z,64.95
2022-11-17T07:36:28.244Z,65.24
2022-11-17T07:38:58.282Z,65.26
2022-11-17T07:41:28.397Z,64.71
2022-11-17T07:43:58.771Z,65.06
2022-11-17T07:46:28.996Z,64.74
2022-11-17T07:48:59.331Z,64.89
2022-11-17T07:51:29.915Z,64.72
2022-11-17T07:53:59.966Z,65.02
2022-11-17T07:56:30.179Z,64.56
2022-11-17T07:59:00.582Z,64.88
2022-11-17T08:01:31.821Z,64.77
2022-11-17T08:04:01.661Z,64.95
2022-11-17T08:06:31.790Z,64.57
2022-11-17T08:09:01.994Z,64.65
2022-11-17T08:11:32.113Z,64.42
2022-11-17T08:14:02.206Z,64.43
2022-11-17T08:16:33.100Z,64.34
2022-11-17T08:19:03.396Z,63.73
2022-11-17T08:21:33.714Z,63.86
2022-11-17T08:24:03.980Z,63.93
2022-11-17T08:26:34.225Z,63.56
2022-11-17T08:29:04.504Z,63.78
2022-11-17T08:31:35.374Z,63.60
2022-11-17T08:34:05.729Z,64.21
2022-11-17T08:36:35.977Z,64.02
2022-11-17T08:39:06.765Z,63.94
2022-11-17T08:41:36.898Z,63.62
2022-11-17T08:44:07.487Z,64.06
2022-11-17T08:46:37.748Z,63.56
2022-11-17T08:49:08.005Z,64.19
2022-11-17T08:51:38.146Z,63.67
2022-11-17T08:54:08.184Z,63.91
2022-11-17T08:56:38.323Z,63.86
2022-11-17T08:59:08.528Z,63.77
2022-11-17T09:01:38.607Z,63.83
2022-11-17T09:04:08.768Z,63.83
2022-11-17T09:06:38.812Z,64.10
2022-11-17T09:09:08.908Z,63.94
2022-11-17T09:11:39.377Z,63.85
2022-11-17T09:14:10.224Z,63.86
2022-11-17T09:16:40.594Z,63.91
2022-11-17T09:19:10.816Z,63.69
2022-11-17T09:21:40.854Z,64.02
2022-11-17T09:24:11.953Z,63.72
2022-11-17T09:26:43.340Z,63.44
2022-11-17T09:29:13.242Z,63.69
2022-11-17T09:31:43.444Z,63.72
2022-11-17T09:34:13.756Z,63.38
2022-11-17T09:36:44.468Z,62.76
2022-11-17T09:39:14.687Z,62.88
2022-11-17T09:41:53.553Z,63.76
2022-11-17T09:44:33.899Z,64.65
2022-11-17T09:47:23.903Z,65.31
2022-11-17T09:50:20.255Z,65.30
2022-11-17T09:52:53.447Z,65.44
2022-11-17T09:55:39.722Z,65.10
2022-11-17T09:58:28.062Z,65.06
2022-11-17T10:00:58.802Z,64.95
2022-11-17T10:03:44.906Z,65.10
2022-11-17T10:06:15.975Z,64.84
2022-11-17T10:09:07.119Z,65.02
2022-11-17T10:11:44.500Z,64.76
2022-11-17T10:14:19.165Z,65.08
2022-11-17T10:16:55.002Z,65.01
2022-11-17T10:19:26.833Z,64.91
2022-11-17T10:22:06.088Z,64.78
2022-11-17T10:24:45.763Z,64.88
2022-11-17T10:27:32.398Z,64.32
2022-11-17T10:30:09.316Z,64.44
2022-11-17T10:32:57.880Z,64.47
2022-11-17T10:35:29.585Z,64.27
2022-11-17T10:38:02.602Z,64.43
2022-11-17T10:40:52.443Z,64.18
2022-11-17T10:43:23.530Z,63.96
2022-11-17T10:46:06.736Z,64.49
2022-11-17T10:48:41.571Z,64.18
2022-11-17T10:51:21.638Z,64.17
2022-11-17T10:54:20.262Z,64.75
2022-11-17T10:56:57.707Z,64.60
2022-11-17T10:59:44.133Z,64.85
2022-11-17T11:02:31.362Z,65.15
2022-11-17T11:05:16.923Z,64.96
2022-11-17T11:07:47.796Z,64.35
2022-11-17T11:10:37.107Z,64.48
2022-11-17T11:13:45.884Z,64.94
2022-11-17T11:16:16.105Z,64.41
2022-11-17T11:18:46.410Z,64.51
2022-11-17T11:21:49.851Z,64.42
2022-11-17T11:24:36.048Z,64.62
2022-11-17T11:27:51.390Z,64.61
2022-11-17T11:30:22.693Z,65.00
2022-11-17T11:32:58.245Z,64.91
2022-11-17T11:36:02.088Z,65.02
2022-11-17T11:38:38.056Z,64.75
2022-11-17T11:41:37.823Z,65.05
2022-11-17T11:44:46.794Z,64.99
2022-11-17T11:47:35.390Z,65.03
2022-11-17T11:50:27.498Z,65.22
2022-11-17T11:53:20.824Z,65.00
2022-11-17T11:55:56.972Z,65.46
2022-11-17T11:58:27.609Z,65.02
2022-11-17T12:01:08.408Z,65.36
2022-11-17T12:03:43.395Z,65.28
2022-11-17T12:06:37.796Z,65.46
2022-11-17T12:09:22.187Z,65.43
2022-11-17T12:12:02.933Z,65.50
2022-11-17T12:14:39.022Z,65.55
2022-11-17T12:17:28.298Z,65.54
2022-11-17T12:20:10.423Z,65.50
2022-11-17T12:23:03.569Z,65.74
2022-11-17T12:25:39.920Z,65.66
2022-11-17T12:28:31.250Z,65.82
2022-11-17T12:31:34.560Z,65.64
2022-11-17T12:34:04.712Z,66.09
2022-11-17T12:36:36.469Z,65.66
2022-11-17T12:39:12.536Z,65.86
2022-11-17T12:42:07.639Z,66.28
2022-11-17T12:45:03.624Z,66.22
2022-11-17T12:48:11.173Z,66.11
2022-11-17T12:51:09.630Z,66.28
2022-11-17T12:53:58.315Z,66.42
2022-11-17T12:56:49.873Z,66.33
2022-11-17T12:59:41.728Z,66.53
2022-11-17T13:02:35.110Z,66.40
2022-11-17T13:05:24.814Z,66.76
2022-11-17T13:08:21.141Z,67.17
2022-11-17T13:10:51.933Z,66.85
2022-11-17T13:13:26.372Z,67.15
2022-11-17T13:16:01.053Z,67.29
2022-11-17T13:18:33.362Z,67.32
2022-11-17T13:21:04.960Z,67.39
2022-11-17T13:23:36.299Z,67.91
2022-11-17T13:26:22.061Z,67.87
2022-11-17T13:29:15.496Z,68.29
2022-11-17T13:31:45.789Z,68.01
2022-11-17T13:34:16.320Z,68.28
2022-11-17T13:37:03.323Z,68.45
2022-11-17T13:39:33.805Z,69.11
2022-11-17T13:42:05.732Z,69.07
2022-11-17T13:44:36.748Z,69.20
2022-11-17T13:47:41.690Z,69.82
2022-11-17T13:50:27.592Z,69.54
2022-11-17T13:53:24.439Z,69.79
2022-11-17T13:55:55.692Z,69.89
2022-11-17T13:58:38.410Z,69.68
2022-11-17T14:01:09.115Z,70.36
2022-11-17T14:03:45.107Z,70.10
2022-11-17T14:06:16.962Z,70.23
2022-11-17T14:09:05.498Z,70.49
2022-11-17T14:11:35.897Z,70.50
2022-11-17T14:14:16.143Z,70.31
2022-11-17T14:16:47.817Z,69.91
2022-11-17T14:19:18.106Z,70.31
2022-11-17T14:22:19.757Z,70.21
2022-11-17T14:24:54.188Z,70.13
2022-11-17T14:27:30.188Z,71.21
2022-11-17T14:30:00.531Z,71.41
2022-11-17T14:32:30.536Z,71.92
2022-11-17T14:35:02.063Z,72.33
2022-11-17T14:37:35.267Z,72.56
2022-11-17T14:40:07.405Z,72.96
2022-11-17T14:42:37.683Z,71.87
2022-11-17T14:45:08.225Z,72.05
2022-11-17T14:47:38.552Z,72.21
2022-11-17T14:50:10.067Z,72.38
2022-11-17T14:52:41.804Z,72.53
2022-11-17T14:55:12.986Z,72.57
2022-11-17T14:57:44.031Z,72.83
2022-11-17T15:00:20.159Z,72.91
2022-11-17T15:02:50.977Z,72.44
2022-11-17T15:05:21.511Z,72.59
2022-11-17T15:07:52.115Z,72.61
2022-11-17T15:10:22.223Z,71.87
2022-11-17T15:12:53.187Z,71.73
2022-11-17T15:15:23.458Z,71.49
2022-11-17T15:17:53.740Z,71.33
2022-11-17T15:20:24.204Z,71.07
2022-11-17T15:22:57.802Z,71.20
2022-11-17T15:25:30.578Z,71.10
2022-11-17T15:28:00.857Z,70.98
2022-11-17T15:30:31.755Z,70.74
2022-11-17T15:33:03.367Z,71.20
2022-11-17T15:35:34.646Z,70.78
2022-11-17T15:38:04.458Z,71.23
2022-11-17T15:40:34.731Z,71.49
2022-11-17T15:43:39.379Z,71.86
2022-11-17T15:46:11.301Z,72.85
2022-11-17T15:48:46.460Z,72.67
2022-11-17T15:51:19.248Z,73.15
2022-11-17T15:53:50.963Z,72.62
2022-11-17T15:56:26.756Z,72.88
2022-11-17T15:59:05.146Z,72.59
2022-11-17T16:01:37.759Z,72.75
2022-11-17T16:04:14.469Z,73.19
2022-11-17T16:06:47.021Z,72.60
2022-11-17T16:09:18.250Z,72.40
2022-11-17T16:11:48.574Z,72.20
2022-11-17T16:14:19.370Z,72.80
2022-11-17T16:16:50.193Z,72.86
2022-11-17T16:19:21.004Z,72.84
2022-11-17T16:21:52.268Z,72.95
2022-11-17T16:24:22.096Z,73.45
2022-11-17T16:26:53.473Z,72.99
2022-11-17T16:29:23.799Z,73.08
2022-11-17T16:31:53.989Z,73.46
2022-11-17T16:34:24.764Z,72.71
2022-11-17T16:36:55.032Z,72.80
2022-11-17T16:39:25.203Z,72.88
2022-11-17T16:41:56.726Z,72.78
2022-11-17T16:44:27.134Z,71.90
2022-11-17T16:46:58.970Z,73.42
2022-11-17T16:49:32.261Z,72.49
2022-11-17T16:52:02.507Z,73.34
2022-11-17T16:54:32.785Z,73.41
2022-11-17T16:57:02.880Z,72.63
2022-11-17T16:59:33.240Z,72.66
2022-11-17T17:02:03.480Z,73.18
2022-11-17T17:04:33.856Z,72.83
2022-11-17T17:07:04.707Z,73.52
2022-11-17T17:09:35.216Z,73.11
2022-11-17T17:12:05.656Z,72.80
2022-11-17T17:14:35.873Z,73.46
2022-11-17T17:17:06.100Z,73.28
2022-11-17T17:19:36.314Z,73.23
2022-11-17T17:22:06.480Z,73.22
2022-11-17T17:24:36.979Z,73.42
2022-11-17T17:27:09.360Z,72.98
2022-11-17T17:29:39.690Z,72.93
2022-11-17T17:32:10.330Z,73.27
2022-11-17T17:34:40.436Z,73.60
2022-11-17T17:37:10.809Z,73.51
2022-11-17T17:39:41.044Z,73.50
2022-11-17T17:42:11.167Z,73.26
2022-11-17T17:44:41.373Z,73.46
2022-11-17T17:47:11.605Z,73.74
2022-11-17T17:49:41.865Z,73.01
2022-11-17T17:52:13.980Z,73.35
2022-11-17T17:54:44.433Z,73.04
2022-11-17T17:57:14.522Z,73.09
2022-11-17T17:59:44.820Z,73.51
2022-11-17T18:02:14.857Z,73.85
2022-11-17T18:04:44.893Z,73.26
2022-11-17T18:07:15.150Z,73.92
2022-11-17T18:09:45.366Z,73.71
2022-11-17T18:12:15.605Z,73.75
2022-11-17T18:14:46.274Z,73.79
2022-11-17T18:17:16.528Z,73.84
2022-11-17T18:19:46.770Z,73.17
2022-11-17T18:22:17.892Z,73.35
2022-11-17T18:24:47.725Z,73.79
2022-11-17T18:27:19.596Z,73.67
2022-11-17T18:29:51.389Z,73.39
2022-11-17T18:32:21.760Z,73.37
2022-11-17T18:34:52.185Z,73.81
2022-11-17T18:37:22.512Z,73.44
2022-11-17T18:39:52.683Z,73.27
2022-11-17T18:42:22.989Z,73.86
2022-11-17T18:44:53.296Z,73.61
2022-11-17T18:47:23.528Z,73.68
2022-11-17T18:49:55.428Z,73.73
2022-11-17T18:52:31.124Z,73.53
2022-11-17T18:55:01.849Z,73.55
2022-11-17T18:57:32.081Z,73.87
2022-11-17T19:00:02.449Z,73.58
2022-11-17T19:02:32.766Z,73.21
2022-11-17T19:05:02.957Z,73.48
2022-11-17T19:07:35.089Z,73.06
2022-11-17T19:10:05.462Z,73.11
2022-11-17T19:12:35.883Z,73.50
2022-11-17T19:15:06.343Z,73.74
2022-11-17T19:17:36.648Z,73.86
2022-11-17T19:20:07.360Z,73.13
2022-11-17T19:22:37.706Z,73.45
2022-11-17T19:25:08.408Z,73.02
2022-11-17T19:27:38.612Z,73.54
2022-11-17T19:30:10.617Z,73.41
2022-11-17T19:32:41.237Z,73.00
2022-11-17T19:35:15.876Z,73.87
2022-11-17T19:37:47.596Z,72.88
2022-11-17T19:40:18.425Z,73.16
2022-11-17T19:42:50.678Z,73.10
2022-11-17T19:45:21.580Z,73.31
2022-11-17T19:47:51.946Z,73.02
2022-11-17T19:50:22.185Z,73.26
2022-11-17T19:52:52.762Z,73.28
2022-11-17T19:55:23.045Z,72.92
2022-11-17T19:57:53.488Z,72.96
2022-11-17T20:00:23.940Z,72.81
2022-11-17T20:02:54.477Z,73.51
2022-11-17T20:05:24.743Z,73.39
2022-11-17T20:07:55.043Z,73.82
2022-11-17T20:10:25.595Z,73.62
2022-11-17T20:12:55.886Z,73.29
2022-11-17T20:15:39.511Z,73.62
2022-11-17T20:18:09.731Z,73.44
2022-11-17T20:20:40.028Z,73.37
2022-11-17T20:23:10.750Z,72.87
2022-11-17T20:25:40.985Z,73.28
2022-11-17T20:28:11.237Z,72.84
2022-11-17T20:30:41.831Z,72.87
2022-11-17T20:33:12.032Z,72.46
2022-11-17T20:35:42.295Z,72.71
2022-11-17T20:38:15.672Z,72.63
2022-11-17T20:40:46.180Z,72.83
2022-11-17T20:43:16.440Z,72.21
2022-11-17T20:45:47.758Z,72.78
2022-11-17T20:48:18.178Z,72.42
2022-11-17T20:51:10.294Z,72.73
2022-11-17T20:53:41.625Z,72.52
2022-11-17T20:56:13.543Z,72.59
2022-11-17T20:58:44.247Z,72.61
2022-11-17T21:01:26.149Z,72.79
2022-11-17T21:03:56.707Z,72.64
2022-11-17T21:06:27.126Z,72.27
2022-11-17T21:08:57.532Z,72.48
2022-11-17T21:11:46.407Z,72.38
2022-11-17T21:14:17.305Z,72.62
2022-11-17T21:16:52.052Z,72.34
2022-11-17T21:19:23.094Z,72.88
2022-11-17T21:21:56.645Z,72.47
2022-11-17T21:24:28.131Z,72.52
2022-11-17T21:26:59.104Z,72.59
2022-11-17T21:29:29.913Z,72.42
2022-11-17T21:32:00.348Z,72.66
2022-11-17T21:34:30.562Z,72.35
2022-11-17T21:37:00.786Z,72.49
2022-11-17T21:39:30.790Z,72.60
2022-11-17T21:42:01.986Z,72.20
2022-11-17T21:44:32.209Z,72.59
2022-11-17T21:47:02.842Z,72.52
2022-11-17T21:49:33.070Z,72.72
2022-11-17T21:52:03.141Z,72.22
2022-11-17T21:54:33.155Z,72.56
2022-11-17T21:57:03.404Z,72.60
2022-11-17T21:59:33.712Z,72.72
2022-11-17T22:02:03.979Z,72.39
2022-11-17T22:04:34.001Z,72.29
2022-11-17T22:07:04.597Z,72.70
2022-11-17T22:09:34.801Z,72.46
2022-11-17T22:12:05.588Z,72.31
2022-11-17T22:14:35.797Z,72.28
2022-11-17T22:17:05.948Z,72.43
2022-11-17T22:19:36.270Z,73.05
2022-11-17T22:22:06.601Z,72.67
2022-11-17T22:24:39.551Z,73.20
2022-11-17T22:27:10.067Z,73.10
2022-11-17T22:29:40.433Z,73.17
2022-11-17T22:32:10.647Z,72.64
2022-11-17T22:34:40.882Z,72.95
2022-11-17T22:37:11.125Z,73.00
2022-11-17T22:39:41.366Z,73.33
2022-11-17T22:42:11.777Z,73.07
2022-11-17T22:44:42.186Z,73.10
2022-11-17T22:48:47.554Z,73.08
2022-11-17T22:51:41.306Z,73.21
2022-11-17T22:54:11.960Z,73.08
2022-11-17T22:56:42.172Z,72.63
2022-11-17T22:59:12.733Z,72.70
2022-11-17T23:01:42.803Z,72.80
2022-11-17T23:04:14.153Z,72.76
2022-11-17T23:06:44.350Z,72.96
2022-11-17T23:09:16.320Z,72.84
2022-11-17T23:11:47.009Z,73.02
2022-11-17T23:14:17.297Z,72.89
2022-11-17T23:16:47.532Z,73.08
2022-11-17T23:19:17.795Z,72.93
2022-11-17T23:21:48.122Z,72.79
2022-11-17T23:24:18.077Z,72.92
2022-11-17T23:26:48.068Z,73.11
2022-11-17T23:29:18.185Z,73.11
2022-11-17T23:31:48.660Z,72.78
2022-11-17T23:34:19.636Z,73.00
2022-11-17T23:36:49.841Z,72.82
2022-11-17T23:39:19.855Z,72.55
2022-11-17T23:41:50.535Z,72.70
2022-11-17T23:44:21.263Z,72.72
2022-11-17T23:46:52.924Z,72.84
2022-11-17T23:49:23.096Z,72.87
2022-11-17T23:51:53.113Z,73.08
2022-11-17T23:54:24.788Z,72.84
2022-11-17T23:56:55.346Z,72.79
2022-11-17T23:59:25.502Z,72.87
